createdAt,value
2018-12-04T00:00:09.010Z,10.00
2018-12-04T00:02:38.282Z,10.00
2018-12-04T00:05:07.643Z,10.00
2018-12-04T00:07:36.828Z,10.00
2018-12-04T00:10:08.379Z,10.10
2018-12-04T00:12:37.551Z,10.10
2018-12-04T00:15:07.012Z,10.10
2018-12-04T00:17:36.199Z,10.10
2018-12-04T00:20:06.022Z,10.10
2018-12-04T00:22:35.262Z,10.10
2018-12-04T00:25:05.042Z,10.10
2018-12-04T00:27:34.270Z,10.10
2018-12-04T00:30:03.715Z,10.10
2018-12-04T00:32:32.911Z,10.10
2018-12-04T00:35:02.197Z,10.10
2018-12-04T00:37:31.457Z,10.10
2018-12-04T00:40:00.764Z,10.10
2018-12-04T00:42:30.083Z,10.10
2018-12-04T00:44:59.375Z,10.10
2018-12-04T00:47:28.595Z,10.10
2018-12-04T00:49:57.771Z,10.10
2018-12-04T00:52:26.960Z,10.10
2018-12-04T00:54:56.157Z,10.10
2018-12-04T00:57:25.457Z,10.10
2018-12-04T00:59:54.662Z,10.10
2018-12-04T01:02:24.206Z,10.20
2018-12-04T01:04:53.486Z,10.20
2018-12-04T01:07:22.705Z,10.20
2018-12-04T01:09:51.887Z,10.20
2018-12-04T01:12:21.111Z,10.20
2018-12-04T01:14:50.378Z,10.20
2018-12-04T01:17:19.698Z,10.20
2018-12-04T01:19:48.986Z,10.20
2018-12-04T01:22:18.159Z,10.20
2018-12-04T01:24:47.453Z,10.10
2018-12-04T01:27:16.628Z,10.10
2018-12-04T01:29:45.890Z,10.10
2018-12-04T01:32:15.196Z,10.00
2018-12-04T01:34:44.475Z,10.10
2018-12-04T01:37:13.783Z,10.10
2018-12-04T01:39:43.050Z,10.10
2018-12-04T01:42:12.255Z,10.10
2018-12-04T01:44:41.464Z,10.10
2018-12-04T01:47:10.682Z,10.10
2018-12-04T01:49:39.958Z,10.10
2018-12-04T01:52:09.150Z,10.00
2018-12-04T01:54:38.382Z,10.00
2018-12-04T01:57:07.572Z,10.00
2018-12-04T01:59:36.779Z,10.00
2018-12-04T02:02:06.159Z,10.00
2018-12-04T02:04:35.379Z,10.00
2018-12-04T02:07:04.875Z,10.00
2018-12-04T02:09:34.210Z,10.00
2018-12-04T02:12:03.560Z,10.00
2018-12-04T02:14:32.848Z,10.00
2018-12-04T02:17:02.175Z,10.00
2018-12-04T02:19:31.503Z,10.00
2018-12-04T02:22:00.853Z,10.00
2018-12-04T02:24:30.159Z,10.00
2018-12-04T02:26:59.353Z,10.00
2018-12-04T02:29:28.582Z,10.00
2018-12-04T02:31:58.014Z,10.10
2018-12-04T02:34:27.250Z,10.20
2018-12-04T02:36:56.470Z,10.20
2018-12-04T02:39:25.720Z,10.20
2018-12-04T02:41:55.255Z,10.20
2018-12-04T02:44:24.506Z,10.30
2018-12-04T02:46:53.805Z,10.30
2018-12-04T02:49:23.126Z,10.30
2018-12-04T02:51:52.348Z,10.30
2018-12-04T02:54:21.674Z,10.20
2018-12-04T02:56:51.199Z,10.20
2018-12-04T02:59:20.464Z,10.20
2018-12-04T03:01:49.759Z,10.20
2018-12-04T03:04:19.076Z,10.20
2018-12-04T03:06:48.465Z,10.20
2018-12-04T03:09:17.694Z,10.20
2018-12-04T03:11:46.896Z,10.20
2018-12-04T03:14:16.166Z,10.20
2018-12-04T03:16:45.474Z,10.20
2018-12-04T03:19:14.695Z,10.10
2018-12-04T03:21:43.956Z,10.10
2018-12-04T03:24:13.325Z,10.10
2018-12-04T03:26:42.506Z,10.10
2018-12-04T03:29:11.723Z,10.10
2018-12-04T03:31:40.904Z,10.10
2018-12-04T03:34:10.325Z,10.10
2018-12-04T03:36:39.511Z,10.10
2018-12-04T03:39:09.575Z,10.10
2018-12-04T03:41:39.485Z,10.10
2018-12-04T03:44:08.723Z,10.00
2018-12-04T03:46:37.962Z,10.10
2018-12-04T03:49:07.289Z,10.10
2018-12-04T03:51:36.727Z,10.10
2018-12-04T03:54:06.129Z,10.10
2018-12-04T03:56:35.389Z,10.10
2018-12-04T03:59:04.812Z,10.10
2018-12-04T04:01:34.089Z,10.10
2018-12-04T04:04:03.385Z,10.10
2018-12-04T04:06:32.698Z,10.10
2018-12-04T04:09:01.959Z,10.10
2018-12-04T04:11:31.166Z,10.10
2018-12-04T04:14:00.386Z,10.10
2018-12-04T04:16:29.663Z,10.10
2018-12-04T04:18:59.098Z,10.10
2018-12-04T04:21:28.331Z,10.10
2018-12-04T04:23:57.550Z,10.10
2018-12-04T04:26:26.727Z,10.10
2018-12-04T04:28:56.012Z,10.10
2018-12-04T04:31:25.334Z,10.10
2018-12-04T04:33:54.646Z,10.10
2018-12-04T04:36:23.863Z,10.00
2018-12-04T04:38:53.188Z,10.00
2018-12-04T04:41:22.384Z,10.10
2018-12-04T04:43:51.755Z,10.00
2018-12-04T04:46:20.955Z,10.00
2018-12-04T04:48:50.239Z,10.00
2018-12-04T04:51:19.459Z,10.00
2018-12-04T04:53:48.677Z,9.90
2018-12-04T04:56:18.123Z,9.90
2018-12-04T04:58:47.401Z,9.90
2018-12-04T05:01:16.782Z,9.90
2018-12-04T05:03:46.044Z,9.90
2018-12-04T05:06:15.255Z,10.00
2018-12-04T05:08:44.448Z,9.90
2018-12-04T05:11:13.756Z,9.80
2018-12-04T05:13:43.076Z,9.80
2018-12-04T05:16:12.533Z,9.70
2018-12-04T05:18:42.222Z,9.70
2018-12-04T05:21:11.554Z,9.60
2018-12-04T05:23:40.752Z,9.60
2018-12-04T05:26:09.999Z,9.50
2018-12-04T05:28:39.200Z,9.40
2018-12-04T05:31:08.490Z,9.40
2018-12-04T05:33:37.687Z,9.40
2018-12-04T05:36:06.989Z,9.40
2018-12-04T05:38:36.254Z,9.40
2018-12-04T05:41:05.454Z,9.40
2018-12-04T05:43:34.635Z,9.40
2018-12-04T05:46:03.951Z,9.30
2018-12-04T05:48:33.138Z,9.30
2018-12-04T05:51:02.354Z,9.30
2018-12-04T05:53:36.698Z,9.20
2018-12-04T05:56:09.820Z,9.30
2018-12-04T05:58:39.003Z,9.30
2018-12-04T06:01:08.211Z,9.40
2018-12-04T06:03:37.463Z,9.30
2018-12-04T06:06:06.654Z,9.20
2018-12-04T06:08:35.890Z,9.20
2018-12-04T06:11:05.207Z,9.10
2018-12-04T06:13:34.383Z,9.10
2018-12-04T06:16:03.630Z,9.10
2018-12-04T06:18:33.014Z,9.10
2018-12-04T06:21:02.268Z,9.00
2018-12-04T06:23:31.510Z,9.00
2018-12-04T06:26:00.807Z,8.80
2018-12-04T06:28:29.979Z,8.80
2018-12-04T06:30:59.259Z,8.90
2018-12-04T06:33:28.582Z,8.90
2018-12-04T06:35:57.768Z,8.90
2018-12-04T06:38:27.035Z,8.80
2018-12-04T06:41:02.907Z,8.80
2018-12-04T06:43:32.135Z,8.80
2018-12-04T06:46:01.587Z,8.70
2018-12-04T06:48:30.756Z,8.50
2018-12-04T06:51:00.002Z,8.50
2018-12-04T06:53:29.169Z,8.50
2018-12-04T06:55:58.353Z,8.40
2018-12-04T06:58:27.527Z,8.30
2018-12-04T07:00:56.817Z,8.30
2018-12-04T07:03:25.979Z,8.20
2018-12-04T07:05:56.067Z,8.20
2018-12-04T07:08:25.339Z,8.10
2018-12-04T07:10:54.614Z,8.00
2018-12-04T07:13:23.782Z,8.00
2018-12-04T07:15:52.977Z,8.00
2018-12-04T07:18:22.155Z,8.00
2018-12-04T07:20:51.330Z,8.00
2018-12-04T07:23:20.514Z,8.00
2018-12-04T07:25:49.701Z,8.00
2018-12-04T07:28:18.873Z,7.90
2018-12-04T07:30:48.059Z,7.90
2018-12-04T07:33:17.314Z,7.90
2018-12-04T07:35:46.582Z,7.90
2018-12-04T07:38:15.863Z,7.90
2018-12-04T07:40:45.072Z,7.90
2018-12-04T07:43:14.239Z,8.00
2018-12-04T07:45:43.428Z,8.00
2018-12-04T07:48:12.596Z,7.90
2018-12-04T07:50:44.879Z,7.80
2018-12-04T07:53:14.148Z,7.80
2018-12-04T07:55:45.653Z,7.80
2018-12-04T07:58:15.766Z,7.80
2018-12-04T08:00:45.180Z,7.80
2018-12-04T08:03:14.379Z,7.80
2018-12-04T08:05:43.563Z,7.80
2018-12-04T08:08:12.742Z,7.90
2018-12-04T08:10:41.929Z,7.80
2018-12-04T08:13:11.095Z,7.70
2018-12-04T08:15:40.411Z,7.70
2018-12-04T08:18:09.584Z,7.70
2018-12-04T08:20:38.766Z,7.70
2018-12-04T08:23:07.942Z,7.70
2018-12-04T08:25:37.181Z,7.60
2018-12-04T08:28:06.374Z,7.50
2018-12-04T08:30:35.545Z,7.50
2018-12-04T08:33:04.888Z,7.50
2018-12-04T08:35:34.099Z,7.50
2018-12-04T08:38:03.379Z,7.50
2018-12-04T08:40:32.587Z,7.50
2018-12-04T08:43:01.783Z,7.50
2018-12-04T08:45:30.947Z,7.50
2018-12-04T08:48:00.169Z,7.40
2018-12-04T08:50:29.478Z,7.40
2018-12-04T08:52:58.681Z,7.40
2018-12-04T08:55:27.953Z,7.40
2018-12-04T08:57:57.133Z,7.40
2018-12-04T09:00:26.380Z,7.40
2018-12-04T09:02:55.655Z,7.40
2018-12-04T09:05:25.808Z,7.40
2018-12-04T09:07:55.074Z,7.40
2018-12-04T09:10:24.293Z,7.50
2018-12-04T09:12:53.566Z,7.50
2018-12-04T09:15:23.279Z,7.50
2018-12-04T09:17:52.551Z,7.40
2018-12-04T09:20:21.803Z,7.40
2018-12-04T09:22:51.060Z,7.40
2018-12-04T09:25:20.381Z,7.50
2018-12-04T09:27:49.702Z,7.50
2018-12-04T09:30:18.960Z,7.50
2018-12-04T09:32:48.271Z,7.50
2018-12-04T09:35:17.454Z,7.60
2018-12-04T09:37:46.630Z,7.60
2018-12-04T09:40:15.926Z,7.70
2018-12-04T09:42:45.252Z,7.70
2018-12-04T09:45:14.407Z,7.70
2018-12-04T09:47:43.735Z,7.70
2018-12-04T09:50:13.087Z,7.80
2018-12-04T09:52:42.276Z,7.80
2018-12-04T09:55:11.451Z,7.80
2018-12-04T09:57:40.635Z,7.80
2018-12-04T10:00:10.573Z,7.70
2018-12-04T10:02:39.778Z,7.70
2018-12-04T10:05:09.062Z,7.70
2018-12-04T10:07:38.255Z,7.70
2018-12-04T10:10:12.111Z,7.70
2018-12-04T10:12:41.433Z,7.70
2018-12-04T10:15:10.771Z,7.70
2018-12-04T10:17:39.971Z,7.80
2018-12-04T10:20:11.733Z,7.80
2018-12-04T10:22:40.935Z,7.90
2018-12-04T10:25:10.212Z,7.80
2018-12-04T10:27:39.401Z,7.90
2018-12-04T10:30:10.488Z,8.00
2018-12-04T10:32:39.870Z,8.00
2018-12-04T10:35:09.219Z,8.00
2018-12-04T10:37:38.454Z,8.00
2018-12-04T10:40:08.890Z,8.00
2018-12-04T10:42:38.090Z,8.00
2018-12-04T10:45:08.299Z,8.00
2018-12-04T10:47:37.547Z,8.00
2018-12-04T10:50:08.874Z,7.90
2018-12-04T10:52:38.294Z,7.90
2018-12-04T10:55:07.759Z,8.00
2018-12-04T10:57:36.963Z,7.90
2018-12-04T11:03:13.631Z,8.00
2018-12-04T11:05:43.686Z,8.00
2018-12-04T11:08:12.875Z,8.00
2018-12-04T11:10:42.047Z,7.90
2018-12-04T11:13:11.287Z,7.80
2018-12-04T11:15:40.535Z,7.90
2018-12-04T11:18:09.719Z,8.00
2018-12-04T11:20:38.886Z,8.10
2018-12-04T11:23:08.063Z,8.10
2018-12-04T11:25:37.228Z,8.20
2018-12-04T11:28:06.532Z,8.20
2018-12-04T11:30:35.734Z,8.10
2018-12-04T11:33:05.227Z,8.10
2018-12-04T11:35:34.399Z,8.20
2018-12-04T11:38:03.635Z,8.20
2018-12-04T11:40:32.866Z,8.20
2018-12-04T11:43:02.132Z,8.30
2018-12-04T11:45:31.368Z,8.20
2018-12-04T11:48:00.627Z,8.10
2018-12-04T11:50:29.808Z,8.10
2018-12-04T11:52:59.008Z,8.00
2018-12-04T11:55:28.245Z,7.80
2018-12-04T11:57:57.468Z,7.70
2018-12-04T12:00:32.035Z,7.70
2018-12-04T12:03:01.428Z,8.50
2018-12-04T12:05:30.899Z,8.90
2018-12-04T12:08:00.123Z,8.70
2018-12-04T12:10:29.339Z,8.90
2018-12-04T12:12:58.583Z,8.40
2018-12-04T12:15:27.866Z,8.20
2018-12-04T12:17:57.155Z,8.20
2018-12-04T12:20:26.387Z,8.10
2018-12-04T12:22:55.615Z,8.10
2018-12-04T12:25:24.894Z,8.40
2018-12-04T12:27:54.182Z,8.30
2018-12-04T12:30:23.372Z,8.40
2018-12-04T12:32:52.742Z,8.50
2018-12-04T12:35:22.015Z,8.90
2018-12-04T12:37:51.215Z,9.30
2018-12-04T12:40:20.407Z,11.20
2018-12-04T12:42:50.769Z,12.00
2018-12-04T12:45:20.104Z,11.30
2018-12-04T12:47:49.607Z,10.50
2018-12-04T12:50:18.783Z,11.20
2018-12-04T12:52:48.030Z,10.90
2018-12-04T12:55:17.210Z,11.40
2018-12-04T12:57:46.411Z,11.90
2018-12-04T13:00:15.595Z,13.00
2018-12-04T13:02:44.799Z,12.90
2018-12-04T13:05:14.110Z,14.00
2018-12-04T13:07:43.336Z,14.50
2018-12-04T13:10:12.645Z,13.70
2018-12-04T13:12:41.911Z,13.50
2018-12-04T13:15:11.206Z,14.20
2018-12-04T13:17:40.408Z,13.90
2018-12-04T13:20:09.960Z,13.40
2018-12-04T13:22:39.155Z,13.60
2018-12-04T13:25:08.759Z,13.80
2018-12-04T13:27:37.947Z,13.50
2018-12-04T13:30:09.004Z,13.10
2018-12-04T13:32:38.270Z,12.50
2018-12-04T13:35:07.687Z,11.80
2018-12-04T13:37:36.878Z,11.30
2018-12-04T13:40:08.803Z,10.60
2018-12-04T13:42:38.290Z,9.90
2018-12-04T13:45:08.211Z,9.40
2018-12-04T13:47:37.383Z,8.90
2018-12-04T13:50:06.891Z,8.60
2018-12-04T13:52:36.997Z,8.70
2018-12-04T13:55:06.607Z,8.90
2018-12-04T13:57:35.958Z,9.20
2018-12-04T14:00:06.913Z,8.90
2018-12-04T14:02:36.096Z,8.70
2018-12-04T14:05:08.049Z,8.40
2018-12-04T14:07:37.561Z,8.30
2018-12-04T14:10:09.657Z,8.20
2018-12-04T14:12:38.844Z,8.30
2018-12-04T14:15:08.406Z,8.60
2018-12-04T14:17:37.594Z,8.40
2018-12-04T14:20:09.246Z,8.40
2018-12-04T14:22:38.791Z,8.60
2018-12-04T14:25:08.470Z,8.60
2018-12-04T14:27:37.750Z,8.50
2018-12-04T14:30:11.293Z,8.40
2018-12-04T14:32:40.584Z,8.20
2018-12-04T14:35:09.900Z,7.90
2018-12-04T14:37:39.143Z,7.80
2018-12-04T14:40:09.400Z,7.70
2018-12-04T14:42:38.729Z,7.60
2018-12-04T14:45:08.257Z,7.40
2018-12-04T14:47:38.990Z,7.40
2018-12-04T14:50:09.838Z,7.40
2018-12-04T14:52:39.111Z,7.30
2018-12-04T14:55:09.102Z,7.30
2018-12-04T14:57:38.270Z,7.10
2018-12-04T15:00:10.374Z,7.00
2018-12-04T15:02:39.668Z,7.00
2018-12-04T15:05:10.147Z,6.90
2018-12-04T15:07:39.439Z,6.90
2018-12-04T15:10:11.130Z,6.80
2018-12-04T15:12:40.298Z,6.70
2018-12-04T15:15:16.450Z,6.80
2018-12-04T15:17:45.615Z,6.80
2018-12-04T15:20:14.817Z,6.70
2018-12-04T15:22:43.997Z,6.80
2018-12-04T15:25:13.243Z,6.80
2018-12-04T15:27:42.639Z,6.80
2018-12-04T15:30:12.120Z,6.80
2018-12-04T15:32:41.482Z,6.90
2018-12-04T15:35:10.804Z,6.80
2018-12-04T15:37:40.070Z,6.80
2018-12-04T15:40:09.507Z,6.80
2018-12-04T15:42:38.683Z,6.70
2018-12-04T15:45:08.093Z,6.70
2018-12-04T15:47:37.505Z,6.70
2018-12-04T15:50:08.201Z,6.60
2018-12-04T15:52:37.395Z,6.60
2018-12-04T15:55:07.044Z,6.50
2018-12-04T15:57:36.318Z,6.60
2018-12-04T16:00:09.265Z,6.60
2018-12-04T16:02:38.538Z,6.50
2018-12-04T16:05:09.534Z,6.60
2018-12-04T16:07:38.707Z,6.60
2018-12-04T16:10:13.367Z,6.50
2018-12-04T16:12:42.554Z,6.60
2018-12-04T16:15:11.942Z,6.60
2018-12-04T16:17:41.115Z,6.60
2018-12-04T16:20:10.606Z,6.60
2018-12-04T16:22:39.822Z,6.50
2018-12-04T16:25:10.079Z,6.40
2018-12-04T16:27:39.323Z,6.30
2018-12-04T16:30:10.466Z,6.30
2018-12-04T16:32:39.638Z,6.30
2018-12-04T16:35:09.623Z,6.30
2018-12-04T16:37:38.899Z,6.20
2018-12-04T16:40:09.310Z,6.10
2018-12-04T16:42:38.500Z,6.00
2018-12-04T16:45:08.079Z,6.00
2018-12-04T16:47:37.251Z,6.10
2018-12-04T16:50:07.289Z,5.90
2018-12-04T16:52:36.552Z,5.80
2018-12-04T16:55:07.191Z,5.60
2018-12-04T16:57:36.443Z,5.40
2018-12-04T17:00:08.367Z,5.50
2018-12-04T17:02:37.621Z,5.40
2018-12-04T17:05:07.194Z,5.40
2018-12-04T17:09:00.945Z,5.40
2018-12-04T17:11:30.267Z,5.40
2018-12-04T17:13:59.431Z,5.40
2018-12-04T17:16:28.711Z,5.40
2018-12-04T17:18:58.171Z,5.30
2018-12-04T17:21:27.366Z,5.30
2018-12-04T17:23:56.563Z,5.30
2018-12-04T17:26:25.851Z,5.30
2018-12-04T17:28:55.030Z,5.30
2018-12-04T17:31:24.215Z,5.20
2018-12-04T17:33:55.028Z,5.20
2018-12-04T17:36:24.490Z,5.10
2018-12-04T17:38:53.684Z,5.20
2018-12-04T17:41:22.958Z,5.30
2018-12-04T17:43:52.292Z,5.30
2018-12-04T17:46:21.485Z,5.20
2018-12-04T17:48:50.659Z,5.10
2018-12-04T17:51:19.859Z,5.10
2018-12-04T17:53:49.101Z,4.90
2018-12-04T17:56:18.321Z,4.90
2018-12-04T17:58:47.507Z,4.90
2018-12-04T18:01:16.716Z,4.90
2018-12-04T18:03:46.598Z,5.00
2018-12-04T18:06:15.786Z,5.00
2018-12-04T18:08:45.071Z,4.90
2018-12-04T18:11:14.398Z,4.80
2018-12-04T18:13:43.607Z,4.90
2018-12-04T18:16:12.899Z,4.80
2018-12-04T18:18:42.066Z,4.80
2018-12-04T18:21:11.252Z,4.70
2018-12-04T18:23:40.418Z,4.70
2018-12-04T18:26:09.703Z,4.60
2018-12-04T18:28:39.743Z,4.50
2018-12-04T18:31:09.033Z,4.50
2018-12-04T18:33:41.205Z,4.40
2018-12-04T18:36:10.599Z,4.50
2018-12-04T18:38:39.975Z,4.50
2018-12-04T18:41:09.173Z,4.40
2018-12-04T18:43:38.354Z,4.10
2018-12-04T18:46:07.541Z,4.20
2018-12-04T18:48:36.759Z,4.20
2018-12-04T18:51:06.331Z,4.10
2018-12-04T18:53:36.174Z,4.00
2018-12-04T18:56:05.466Z,4.00
2018-12-04T18:58:34.656Z,4.00
2018-12-04T19:01:03.950Z,4.00
2018-12-04T19:03:33.186Z,4.10
2018-12-04T19:06:02.482Z,4.00
2018-12-04T19:08:37.127Z,3.80
2018-12-04T19:11:07.385Z,3.90
2018-12-04T19:13:36.718Z,3.90
2018-12-04T19:16:06.170Z,3.90
2018-12-04T19:18:35.424Z,3.90
2018-12-04T19:21:04.820Z,3.90
2018-12-04T19:23:34.129Z,3.80
2018-12-04T19:26:03.331Z,3.70
2018-12-04T19:28:32.624Z,3.50
2018-12-04T19:31:02.878Z,3.40
2018-12-04T19:33:32.663Z,3.30
2018-12-04T19:36:03.015Z,3.30
2018-12-04T19:38:32.199Z,3.30
2018-12-04T19:41:01.394Z,3.30
2018-12-04T19:43:30.872Z,3.30
2018-12-04T19:46:00.124Z,3.30
2018-12-04T19:48:29.375Z,3.30
2018-12-04T19:50:58.741Z,3.30
2018-12-04T19:53:28.313Z,3.20
2018-12-04T19:55:57.674Z,3.20
2018-12-04T19:58:27.184Z,3.10
2018-12-04T20:00:56.527Z,3.20
2018-12-04T20:03:28.923Z,3.10
2018-12-04T20:05:58.082Z,3.00
2018-12-04T20:08:31.402Z,3.00
2018-12-04T20:11:00.846Z,3.00
2018-12-04T20:13:30.066Z,2.90
2018-12-04T20:15:59.241Z,2.90
2018-12-04T20:18:28.439Z,3.10
2018-12-04T20:20:57.611Z,3.00
2018-12-04T20:23:26.969Z,2.90
2018-12-04T20:25:56.140Z,2.90
2018-12-04T20:28:25.326Z,3.00
2018-12-04T20:30:54.490Z,3.00
2018-12-04T20:33:23.933Z,2.90
2018-12-04T20:35:53.109Z,2.90
2018-12-04T20:38:22.307Z,2.90
2018-12-04T20:40:51.744Z,2.90
2018-12-04T20:43:20.923Z,2.80
2018-12-04T20:45:50.145Z,2.60
2018-12-04T20:48:19.319Z,2.70
2018-12-04T20:50:48.748Z,2.70
2018-12-04T20:53:17.944Z,2.70
2018-12-04T20:55:47.511Z,2.80
2018-12-04T20:58:16.749Z,2.80
2018-12-04T21:00:46.099Z,2.70
2018-12-04T21:03:15.338Z,2.70
2018-12-04T21:05:44.499Z,2.60
2018-12-04T21:08:13.840Z,2.70
2018-12-04T21:10:43.008Z,2.70
2018-12-04T21:13:14.621Z,2.60
2018-12-04T21:15:43.506Z,2.60
2018-12-04T21:18:12.694Z,2.60
2018-12-04T21:20:41.867Z,2.50
2018-12-04T21:23:11.051Z,2.50
2018-12-04T21:25:40.219Z,2.60
2018-12-04T21:28:14.853Z,2.70
2018-12-04T21:30:49.363Z,2.50
2018-12-04T21:33:23.827Z,2.60
2018-12-04T21:35:58.645Z,2.40
2018-12-04T21:38:33.986Z,2.30
2018-12-04T21:41:09.575Z,2.20
2018-12-04T21:43:44.107Z,2.20
2018-12-04T21:46:18.696Z,2.10
2018-12-04T21:48:48.179Z,2.10
2018-12-04T21:51:17.346Z,2.20
2018-12-04T21:53:46.551Z,2.20
2018-12-04T21:56:15.716Z,2.20
2018-12-04T21:58:44.895Z,2.20
2018-12-04T22:01:14.063Z,2.20
2018-12-04T22:03:43.247Z,2.20
2018-12-04T22:06:12.513Z,2.20
2018-12-04T22:08:41.699Z,2.40
2018-12-04T22:11:10.955Z,2.30
2018-12-04T22:13:40.157Z,2.40
2018-12-04T22:16:09.413Z,2.30
2018-12-04T22:18:38.598Z,2.30
2018-12-04T22:21:07.867Z,2.20
2018-12-04T22:23:37.071Z,2.20
2018-12-04T22:26:06.247Z,2.10
2018-12-04T22:28:35.427Z,2.10
2018-12-04T22:31:04.859Z,2.10
2018-12-04T22:33:34.056Z,2.20
2018-12-04T22:36:03.355Z,2.10
2018-12-04T22:38:32.576Z,2.20
2018-12-04T22:41:01.766Z,2.30
2018-12-04T22:43:30.946Z,2.10
2018-12-04T22:46:00.126Z,2.10
2018-12-04T22:48:29.319Z,2.20
2018-12-04T22:50:58.485Z,2.20
2018-12-04T22:53:27.763Z,2.20
2018-12-04T22:55:56.943Z,2.00
2018-12-04T22:58:26.127Z,2.00
2018-12-04T23:00:55.518Z,1.80
2018-12-04T23:03:24.807Z,1.60
2018-12-04T23:05:54.082Z,1.70
2018-12-04T23:08:23.279Z,1.80
2018-12-04T23:10:52.548Z,1.90
2018-12-04T23:13:21.767Z,1.90
2018-12-04T23:15:51.042Z,1.90
2018-12-04T23:18:20.338Z,1.80
2018-12-04T23:20:50.231Z,1.80
2018-12-04T23:23:19.637Z,1.80
2018-12-04T23:25:48.898Z,1.70
2018-12-04T23:28:18.148Z,1.70
2018-12-04T23:30:47.428Z,1.60
2018-12-04T23:33:16.624Z,1.60
2018-12-04T23:35:45.813Z,1.60
2018-12-04T23:38:15.003Z,1.70
2018-12-04T23:40:44.193Z,1.80
2018-12-04T23:43:13.393Z,1.80
2018-12-04T23:45:42.578Z,1.90
2018-12-04T23:48:11.828Z,1.80
2018-12-04T23:50:41.544Z,1.70
2018-12-04T23:53:11.076Z,1.60
2018-12-04T23:55:53.659Z,1.50
2018-12-04T23:58:22.856Z,1.50
